Time;durP1;ratioP1;P1;durP2;ratioP2;P2;SDS_P1;SDS_P2;PMS_P1;PMS_P2;Temp;Humidity;BMP_temperature;BMP_pressure;BME280_temperature;BME280_humidity;BME280_pressure;Samples;Min_cycle;Max_cycle;Signal;HPM_P1;HPM_P2
2022/01/03 00:00:43;;;;;;;20.07;3.57;;;;;;;;;;5049379;28;20184;-71
2022/01/03 00:03:09;;;;;;;22.27;4.53;;;;;;;;;;5068916;28;20257;-71
2022/01/03 00:05:35;;;;;;;17.43;4.50;;;;;;;;;;5087159;22;20244;-71
2022/01/03 00:08:00;;;;;;;16.67;4.17;;;;;;;;;;5076315;28;20185;-71
2022/01/03 00:10:25;;;;;;;15.80;3.80;;;;;;;;;;5070249;28;20845;-72
2022/01/03 00:12:51;;;;;;;22.57;4.47;;;;;;;;;;5063815;28;20601;-68
2022/01/03 00:15:17;;;;;;;27.90;4.07;;;;;;;;;;5060240;28;20358;-70
2022/01/03 00:17:42;;;;;;;26.37;4.77;;;;;;;;;;5056279;28;20559;-70
2022/01/03 00:20:08;;;;;;;18.87;4.10;;;;;;;;;;5057039;28;20177;-68
2022/01/03 00:22:36;;;;;;;22.47;5.43;;;;;;;;;;5044901;28;20222;-68
2022/01/03 00:25:03;;;;;;;28.93;5.43;;;;;;;;;;5047227;28;20205;-67
2022/01/03 00:27:32;;;;;;;18.77;4.93;;;;;;;;;;5048470;28;20185;-69
2022/01/03 00:29:58;;;;;;;28.40;4.37;;;;;;;;;;5048060;28;20259;-68
2022/01/03 00:32:25;;;;;;;23.53;4.87;;;;;;;;;;5050063;28;20189;-68
2022/01/03 00:34:51;;;;;;;28.57;5.50;;;;;;;;;;5047440;28;20268;-69
2022/01/03 00:37:18;;;;;;;26.40;5.03;;;;;;;;;;5048313;28;20662;-68
2022/01/03 00:39:44;;;;;;;23.73;3.77;;;;;;;;;;5047498;28;20604;-67
2022/01/03 00:42:09;;;;;;;30.37;5.70;;;;;;;;;;5048036;28;20185;-68
2022/01/03 00:44:34;;;;;;;32.80;6.20;;;;;;;;;;5048089;28;20192;-68
2022/01/03 00:46:59;;;;;;;26.63;6.37;;;;;;;;;;5050442;28;20185;-68
2022/01/03 00:49:25;;;;;;;26.37;4.73;;;;;;;;;;5048998;28;20196;-69
2022/01/03 00:51:50;;;;;;;26.37;5.10;;;;;;;;;;5047812;28;20191;-69
2022/01/03 00:54:15;;;;;;;27.80;5.10;;;;;;;;;;5047113;28;20184;-70
2022/01/03 00:56:46;;;;;;;28.30;7.20;;;;;;;;;;5031631;28;20203;-69
2022/01/03 00:59:23;;;;;;;22.87;5.13;;;;;;;;;;5048356;28;20177;-68
2022/01/03 01:01:49;;;;;;;29.83;5.13;;;;;;;;;;5047664;28;20185;-69
2022/01/03 01:04:16;;;;;;;25.43;5.37;;;;;;;;;;5048870;28;20192;-68
2022/01/03 01:06:41;;;;;;;19.53;4.60;;;;;;;;;;5047151;28;20291;-68
2022/01/03 01:09:07;;;;;;;25.73;4.53;;;;;;;;;;5051312;28;20781;-68
2022/01/03 01:11:33;;;;;;;26.00;4.60;;;;;;;;;;5045781;28;20288;-68
2022/01/03 01:13:59;;;;;;;22.30;4.07;;;;;;;;;;5048165;28;20188;-68
2022/01/03 01:16:25;;;;;;;20.50;5.07;;;;;;;;;;5051615;28;20708;-68
2022/01/03 01:18:50;;;;;;;18.60;4.27;;;;;;;;;;5051067;28;20177;-69
2022/01/03 01:21:16;;;;;;;26.43;4.67;;;;;;;;;;5047405;28;20267;-70
2022/01/03 01:23:42;;;;;;;27.20;5.87;;;;;;;;;;5047602;28;20188;-69
2022/01/03 01:28:51;;;;;;;30.50;7.17;;;;;;;;;;5047593;28;20208;-68
2022/01/03 01:31:18;;;;;;;23.60;4.80;;;;;;;;;;5046513;28;20584;-67
2022/01/03 01:33:45;;;;;;;25.33;6.07;;;;;;;;;;5047009;28;20188;-69
2022/01/03 01:36:10;;;;;;;27.77;5.50;;;;;;;;;;5047658;28;20321;-69
2022/01/03 01:38:36;;;;;;;23.17;5.23;;;;;;;;;;5047663;28;20212;-69
2022/01/03 01:41:03;;;;;;;20.47;7.07;;;;;;;;;;5047681;28;20561;-69
2022/01/03 01:43:34;;;;;;;28.97;5.67;;;;;;;;;;5045699;28;20189;-69
2022/01/03 01:46:00;;;;;;;26.23;4.57;;;;;;;;;;5048334;28;20224;-68
2022/01/03 01:48:26;;;;;;;25.87;5.53;;;;;;;;;;5067440;28;20331;-69
2022/01/03 01:50:51;;;;;;;35.70;6.63;;;;;;;;;;5072242;28;20217;-67
2022/01/03 01:53:21;;;;;;;30.23;7.73;;;;;;;;;;5054358;28;20181;-68
2022/01/03 01:55:49;;;;;;;25.20;5.20;;;;;;;;;;5046650;28;20216;-69
2022/01/03 01:58:14;;;;;;;27.27;5.37;;;;;;;;;;5047489;28;20324;-69
2022/01/03 02:00:43;;;;;;;29.70;5.10;;;;;;;;;;5045789;28;20447;-69
2022/01/03 02:03:14;;;;;;;21.33;5.13;;;;;;;;;;5049578;28;20173;-69
2022/01/03 02:05:41;;;;;;;31.70;5.87;;;;;;;;;;5050375;28;20221;-68
2022/01/03 02:08:24;;;;;;;32.03;5.43;;;;;;;;;;5051221;28;20189;-69
2022/01/03 02:10:55;;;;;;;29.03;5.73;;;;;;;;;;5050008;28;20393;-69
2022/01/03 02:13:22;;;;;;;33.67;6.43;;;;;;;;;;5050717;28;20216;-68
2022/01/03 02:15:57;;;;;;;26.07;5.23;;;;;;;;;;5049739;28;20311;-69
2022/01/03 02:18:23;;;;;;;28.90;5.37;;;;;;;;;;5054053;28;20180;-69
2022/01/03 02:20:48;;;;;;;30.70;5.50;;;;;;;;;;5049887;28;20177;-68
2022/01/03 02:23:13;;;;;;;21.20;4.47;;;;;;;;;;5052273;28;20176;-69
2022/01/03 02:25:38;;;;;;;35.30;5.73;;;;;;;;;;5049880;28;20209;-70
2022/01/03 02:28:04;;;;;;;24.77;5.10;;;;;;;;;;5050719;28;20185;-69
2022/01/03 02:30:30;;;;;;;23.77;5.40;;;;;;;;;;5050777;28;20555;-68
2022/01/03 02:32:56;;;;;;;24.30;5.93;;;;;;;;;;5053507;28;20190;-68
2022/01/03 02:35:21;;;;;;;31.17;5.87;;;;;;;;;;5050856;28;20204;-69
2022/01/03 02:37:48;;;;;;;24.70;6.30;;;;;;;;;;5049724;28;20230;-69
2022/01/03 02:40:13;;;;;;;26.17;5.60;;;;;;;;;;5050664;28;20590;-67
2022/01/03 02:42:39;;;;;;;24.27;5.30;;;;;;;;;;5050358;28;20286;-68
2022/01/03 02:45:06;;;;;;;31.30;5.70;;;;;;;;;;5063273;28;20197;-68
2022/01/03 02:47:31;;;;;;;32.80;7.00;;;;;;;;;;5055965;28;20266;-67
2022/01/03 02:49:57;;;;;;;20.50;6.77;;;;;;;;;;5052503;28;20551;-68
2022/01/03 02:52:22;;;;;;;37.93;5.60;;;;;;;;;;5050701;28;20173;-69
2022/01/03 02:54:48;;;;;;;29.20;5.97;;;;;;;;;;5053399;28;20176;-69
2022/01/03 02:57:13;;;;;;;32.63;5.80;;;;;;;;;;5055190;28;20219;-68
2022/01/03 02:59:38;;;;;;;31.33;5.57;;;;;;;;;;5049225;28;20716;-68
2022/01/03 03:02:05;;;;;;;28.17;5.20;;;;;;;;;;5051237;28;20181;-68
2022/01/03 03:04:30;;;;;;;28.47;4.77;;;;;;;;;;5054750;28;20181;-67
2022/01/03 03:06:55;;;;;;;30.13;5.37;;;;;;;;;;5054605;28;20222;-68
2022/01/03 03:09:21;;;;;;;29.13;5.90;;;;;;;;;;5055541;28;20279;-68
2022/01/03 03:11:46;;;;;;;25.80;5.03;;;;;;;;;;5049395;28;20185;-68
2022/01/03 03:14:11;;;;;;;25.73;5.23;;;;;;;;;;5049945;28;20181;-68
2022/01/03 03:16:37;;;;;;;28.03;5.77;;;;;;;;;;5049067;28;20224;-69
2022/01/03 03:19:02;;;;;;;29.63;5.97;;;;;;;;;;5035573;28;20676;-68
2022/01/03 03:21:29;;;;;;;32.53;7.90;;;;;;;;;;5049769;28;20178;-68
2022/01/03 03:23:54;;;;;;;25.93;4.47;;;;;;;;;;5031374;28;20223;-68
2022/01/03 03:26:19;;;;;;;39.73;7.23;;;;;;;;;;5050313;28;20283;-68
2022/01/03 03:28:44;;;;;;;28.67;7.87;;;;;;;;;;5049165;28;20192;-69
2022/01/03 03:31:09;;;;;;;27.10;4.93;;;;;;;;;;5035267;28;20177;-69
2022/01/03 03:33:35;;;;;;;30.40;6.50;;;;;;;;;;5056362;28;20192;-68
2022/01/03 03:36:00;;;;;;;33.27;6.03;;;;;;;;;;5030674;28;20216;-68
2022/01/03 03:38:26;;;;;;;28.43;5.57;;;;;;;;;;5030791;28;20180;-68
2022/01/03 03:40:52;;;;;;;25.33;6.00;;;;;;;;;;5030415;28;20189;-68
2022/01/03 03:43:17;;;;;;;44.93;8.90;;;;;;;;;;5031372;28;20223;-68
2022/01/03 03:45:43;;;;;;;36.23;6.37;;;;;;;;;;5031871;28;20875;-68
2022/01/03 03:48:08;;;;;;;22.90;4.97;;;;;;;;;;5051814;28;20189;-67
2022/01/03 03:50:33;;;;;;;29.50;5.77;;;;;;;;;;5031320;28;20269;-71
2022/01/03 03:52:59;;;;;;;32.93;6.33;;;;;;;;;;5048822;28;20800;-70
2022/01/03 03:55:24;;;;;;;37.97;8.03;;;;;;;;;;5032041;28;20208;-71
2022/01/03 03:57:49;;;;;;;30.77;7.73;;;;;;;;;;5047985;28;20185;-70
2022/01/03 04:00:16;;;;;;;33.23;5.97;;;;;;;;;;5047596;28;20670;-68
2022/01/03 04:02:41;;;;;;;27.67;5.60;;;;;;;;;;5048198;28;20188;-69
2022/01/03 04:05:06;;;;;;;29.80;5.87;;;;;;;;;;5053475;28;20287;-68
2022/01/03 04:07:32;;;;;;;32.07;6.10;;;;;;;;;;5031725;28;20188;-69
2022/01/03 04:09:57;;;;;;;26.43;6.73;;;;;;;;;;5033733;28;20187;-68
2022/01/03 04:12:22;;;;;;;34.33;5.87;;;;;;;;;;5043713;28;20184;-68
2022/01/03 04:14:48;;;;;;;30.07;6.70;;;;;;;;;;5034833;28;20270;-69
2022/01/03 04:17:14;;;;;;;28.80;7.00;;;;;;;;;;5050553;28;20422;-68
2022/01/03 04:19:39;;;;;;;38.83;7.57;;;;;;;;;;5048117;28;20187;-69
2022/01/03 04:22:04;;;;;;;33.47;7.73;;;;;;;;;;5049317;28;20185;-68
2022/01/03 04:24:30;;;;;;;28.27;6.33;;;;;;;;;;5030459;28;20196;-67
2022/01/03 04:26:55;;;;;;;35.43;6.73;;;;;;;;;;5048589;28;20205;-69
2022/01/03 04:29:20;;;;;;;32.47;6.13;;;;;;;;;;5048549;28;20763;-67
2022/01/03 04:31:45;;;;;;;40.70;6.80;;;;;;;;;;5047661;28;20211;-68
2022/01/03 04:34:11;;;;;;;35.07;7.53;;;;;;;;;;5046555;28;20188;-68
2022/01/03 04:36:36;;;;;;;32.97;6.67;;;;;;;;;;5063842;28;20200;-68
2022/01/03 04:39:02;;;;;;;30.67;6.00;;;;;;;;;;5051038;28;20197;-67
2022/01/03 04:41:27;;;;;;;30.07;8.03;;;;;;;;;;5048707;28;20269;-68
2022/01/03 04:43:52;;;;;;;30.77;5.40;;;;;;;;;;5047761;28;20639;-68
2022/01/03 04:46:17;;;;;;;35.77;5.60;;;;;;;;;;5048763;28;20224;-68
2022/01/03 04:48:43;;;;;;;33.23;6.63;;;;;;;;;;5050643;28;20185;-68
2022/01/03 04:51:09;;;;;;;29.87;7.13;;;;;;;;;;5045533;28;20681;-69
2022/01/03 04:53:37;;;;;;;27.83;6.13;;;;;;;;;;5044345;28;20192;-69
2022/01/03 04:56:02;;;;;;;31.40;5.43;;;;;;;;;;5047108;28;20209;-68
2022/01/03 04:58:27;;;;;;;39.07;6.77;;;;;;;;;;5047904;28;20241;-68
2022/01/03 05:00:53;;;;;;;25.03;6.50;;;;;;;;;;5047779;28;20192;-68
2022/01/03 05:03:18;;;;;;;38.63;7.27;;;;;;;;;;5052008;28;20654;-69
2022/01/03 05:05:43;;;;;;;31.30;5.47;;;;;;;;;;5051277;28;20223;-68
2022/01/03 05:08:08;;;;;;;24.00;6.07;;;;;;;;;;5032525;28;20176;-69
2022/01/03 05:10:34;;;;;;;22.37;4.97;;;;;;;;;;5047536;28;20188;-68
2022/01/03 05:12:59;;;;;;;27.60;5.77;;;;;;;;;;5047426;28;20189;-68
2022/01/03 05:15:24;;;;;;;29.47;7.07;;;;;;;;;;5047854;28;20255;-69
2022/01/03 05:17:50;;;;;;;23.67;5.60;;;;;;;;;;5050465;28;21281;-69
2022/01/03 05:20:15;;;;;;;33.80;7.37;;;;;;;;;;5047912;28;20185;-68
2022/01/03 05:22:40;;;;;;;34.17;5.23;;;;;;;;;;5047472;28;20180;-68
2022/01/03 05:25:06;;;;;;;31.90;5.57;;;;;;;;;;5030601;28;20201;-68
2022/01/03 05:27:31;;;;;;;40.90;7.33;;;;;;;;;;5046911;28;21699;-68
2022/01/03 05:29:57;;;;;;;20.53;4.87;;;;;;;;;;5047182;28;20173;-68
2022/01/03 05:32:22;;;;;;;29.90;5.80;;;;;;;;;;5043576;28;20200;-67
2022/01/03 05:34:47;;;;;;;35.43;5.50;;;;;;;;;;5046753;28;20177;-68
2022/01/03 05:37:12;;;;;;;24.73;6.37;;;;;;;;;;5048529;28;20196;-68
2022/01/03 05:39:37;;;;;;;24.80;5.90;;;;;;;;;;5050100;28;20185;-69
2022/01/03 05:42:03;;;;;;;29.50;6.17;;;;;;;;;;5050802;28;20180;-68
2022/01/03 05:44:28;;;;;;;32.57;5.10;;;;;;;;;;5051731;28;20887;-69
2022/01/03 05:46:53;;;;;;;34.77;5.80;;;;;;;;;;5033071;28;20307;-69
2022/01/03 05:49:18;;;;;;;20.60;4.60;;;;;;;;;;5036001;28;20193;-68
2022/01/03 05:51:44;;;;;;;23.10;5.07;;;;;;;;;;5056079;28;20177;-67
2022/01/03 05:54:09;;;;;;;21.60;4.43;;;;;;;;;;5051371;28;20435;-68
2022/01/03 05:56:34;;;;;;;26.73;5.90;;;;;;;;;;5051138;28;20228;-68
2022/01/03 05:58:59;;;;;;;25.00;5.67;;;;;;;;;;5051516;28;21667;-69
2022/01/03 06:01:26;;;;;;;21.60;4.30;;;;;;;;;;5052124;28;20271;-71
2022/01/03 06:04:01;;;;;;;21.70;5.43;;;;;;;;;;5058491;28;20271;-68
2022/01/03 06:06:53;;;;;;;27.80;5.30;;;;;;;;;;5055735;28;20227;-69
2022/01/03 06:09:17;;;;;;;24.30;5.07;;;;;;;;;;5075056;28;20208;-67
2022/01/03 06:11:42;;;;;;;30.00;5.87;;;;;;;;;;5067184;28;20360;-67
2022/01/03 06:14:07;;;;;;;25.17;5.00;;;;;;;;;;5050560;28;20184;-68
2022/01/03 06:16:32;;;;;;;20.57;5.10;;;;;;;;;;5049108;28;20689;-67
2022/01/03 06:18:57;;;;;;;26.03;5.27;;;;;;;;;;5053445;28;20169;-70
2022/01/03 06:21:23;;;;;;;20.57;3.83;;;;;;;;;;5049334;28;20185;-68
2022/01/03 06:23:48;;;;;;;20.50;4.67;;;;;;;;;;5033735;28;20183;-67
2022/01/03 06:26:13;;;;;;;29.30;5.43;;;;;;;;;;5049400;28;20224;-68
2022/01/03 06:28:38;;;;;;;20.97;4.03;;;;;;;;;;5051073;28;20197;-70
2022/01/03 06:31:03;;;;;;;33.03;7.93;;;;;;;;;;5050509;28;20192;-68
2022/01/03 06:33:28;;;;;;;25.90;4.37;;;;;;;;;;5052268;28;20193;-68
2022/01/03 06:35:54;;;;;;;20.70;4.80;;;;;;;;;;5052393;28;20282;-68
2022/01/03 06:38:19;;;;;;;32.63;7.57;;;;;;;;;;5049911;28;20225;-68
2022/01/03 06:40:44;;;;;;;26.47;5.87;;;;;;;;;;5032004;28;20181;-68
2022/01/03 06:43:09;;;;;;;33.37;5.67;;;;;;;;;;5050678;28;20570;-68
2022/01/03 06:45:34;;;;;;;29.53;6.87;;;;;;;;;;5051053;28;20197;-71
2022/01/03 06:48:00;;;;;;;32.90;5.07;;;;;;;;;;5053896;28;20288;-71
2022/01/03 06:50:25;;;;;;;23.83;4.57;;;;;;;;;;5048464;28;20552;-69
2022/01/03 06:52:50;;;;;;;17.63;4.90;;;;;;;;;;5049392;28;20752;-69
2022/01/03 06:55:15;;;;;;;18.10;3.90;;;;;;;;;;5049403;28;20827;-68
2022/01/03 06:57:40;;;;;;;20.83;4.20;;;;;;;;;;5032763;28;20837;-68
2022/01/03 07:00:06;;;;;;;23.93;4.90;;;;;;;;;;5049237;28;20188;-68
2022/01/03 07:02:31;;;;;;;26.70;4.87;;;;;;;;;;5051469;28;20617;-69
2022/01/03 07:04:57;;;;;;;20.00;5.87;;;;;;;;;;5049862;28;20199;-68
2022/01/03 07:07:22;;;;;;;30.90;4.97;;;;;;;;;;5049254;28;20197;-68
2022/01/03 07:09:47;;;;;;;20.93;4.77;;;;;;;;;;5049872;28;20186;-70
2022/01/03 07:12:12;;;;;;;21.80;5.60;;;;;;;;;;5049694;28;21698;-70
2022/01/03 07:19:50;;;;;;;23.37;4.60;;;;;;;;;;5049840;28;20186;-68
2022/01/03 07:22:15;;;;;;;28.47;5.67;;;;;;;;;;5049933;28;20196;-68
2022/01/03 07:24:40;;;;;;;16.33;3.43;;;;;;;;;;5063048;28;20236;-68
2022/01/03 07:27:07;;;;;;;25.87;6.60;;;;;;;;;;5059133;28;20801;-68
2022/01/03 07:29:32;;;;;;;22.00;4.10;;;;;;;;;;5050405;28;20279;-68
2022/01/03 07:31:57;;;;;;;18.77;4.37;;;;;;;;;;5050565;28;20394;-68
2022/01/03 07:34:23;;;;;;;24.07;4.53;;;;;;;;;;5048455;28;20181;-68
2022/01/03 07:36:48;;;;;;;27.90;5.57;;;;;;;;;;5049822;28;20265;-67
2022/01/03 07:39:13;;;;;;;23.50;4.03;;;;;;;;;;5046809;28;20787;-70
2022/01/03 07:41:39;;;;;;;24.40;4.07;;;;;;;;;;5032041;28;20184;-68
2022/01/03 07:44:04;;;;;;;21.30;4.33;;;;;;;;;;5042794;28;20272;-67
2022/01/03 07:46:29;;;;;;;19.10;4.67;;;;;;;;;;5040428;28;20216;-67
2022/01/03 07:48:54;;;;;;;29.13;4.90;;;;;;;;;;5053090;28;20272;-67
2022/01/03 07:51:20;;;;;;;27.30;5.17;;;;;;;;;;5051983;28;20191;-69
2022/01/03 07:53:45;;;;;;;28.00;4.83;;;;;;;;;;5048630;28;20200;-68
2022/01/03 07:56:10;;;;;;;27.10;6.30;;;;;;;;;;5050062;28;20212;-70
2022/01/03 07:58:36;;;;;;;24.77;5.10;;;;;;;;;;5050164;28;20173;-70
2022/01/03 08:01:01;;;;;;;30.93;5.60;;;;;;;;;;5048415;28;20211;-70
2022/01/03 08:03:26;;;;;;;18.17;4.53;;;;;;;;;;5051758;28;20272;-68
2022/01/03 08:05:51;;;;;;;26.73;5.33;;;;;;;;;;5049720;28;20213;-68
2022/01/03 08:08:17;;;;;;;27.67;4.10;;;;;;;;;;5033334;28;20181;-69
2022/01/03 08:10:42;;;;;;;30.00;5.13;;;;;;;;;;5031336;28;20773;-68
2022/01/03 08:13:08;;;;;;;21.40;4.57;;;;;;;;;;5049287;28;20522;-68
2022/01/03 08:15:33;;;;;;;23.33;4.17;;;;;;;;;;5032752;28;21692;-69
2022/01/03 08:17:58;;;;;;;21.10;5.17;;;;;;;;;;5052840;28;20214;-67
2022/01/03 08:20:25;;;;;;;19.77;5.07;;;;;;;;;;5034125;28;20195;-69
2022/01/03 08:22:50;;;;;;;22.10;4.53;;;;;;;;;;5053568;28;20181;-69
2022/01/03 08:25:15;;;;;;;19.77;4.43;;;;;;;;;;5049705;28;20203;-70
2022/01/03 08:27:40;;;;;;;21.37;4.20;;;;;;;;;;5054799;28;20212;-69
2022/01/03 08:30:06;;;;;;;26.13;4.60;;;;;;;;;;5048551;28;20185;-68
2022/01/03 08:32:31;;;;;;;29.30;5.40;;;;;;;;;;5048862;28;20200;-68
2022/01/03 08:34:56;;;;;;;20.43;5.07;;;;;;;;;;5049901;28;20296;-69
2022/01/03 08:37:21;;;;;;;20.77;4.90;;;;;;;;;;5032768;28;20204;-68
2022/01/03 08:39:47;;;;;;;18.73;3.77;;;;;;;;;;5048751;28;20316;-68
2022/01/03 08:42:12;;;;;;;25.40;5.00;;;;;;;;;;5048787;28;20607;-70
2022/01/03 08:44:37;;;;;;;24.93;4.90;;;;;;;;;;5048416;28;20211;-69
2022/01/03 08:47:02;;;;;;;31.50;7.17;;;;;;;;;;5050552;28;20681;-69
2022/01/03 08:49:28;;;;;;;20.20;4.67;;;;;;;;;;5049341;28;20277;-69
2022/01/03 08:51:53;;;;;;;23.50;4.23;;;;;;;;;;5052412;28;20570;-69
2022/01/03 08:54:18;;;;;;;23.17;4.20;;;;;;;;;;5055557;28;20184;-69
2022/01/03 08:56:43;;;;;;;19.07;4.27;;;;;;;;;;5049832;28;20277;-69
2022/01/03 08:59:08;;;;;;;24.07;4.83;;;;;;;;;;5049850;28;20189;-69
2022/01/03 09:01:34;;;;;;;27.60;5.53;;;;;;;;;;5049641;28;20182;-69
2022/01/03 09:03:59;;;;;;;29.40;6.00;;;;;;;;;;5055380;28;20213;-69
2022/01/03 09:06:24;;;;;;;24.93;6.03;;;;;;;;;;5050953;28;20220;-69
2022/01/03 09:08:49;;;;;;;24.03;5.00;;;;;;;;;;5036203;28;20189;-70
2022/01/03 09:11:15;;;;;;;28.00;4.77;;;;;;;;;;5037006;28;20196;-69
2022/01/03 09:13:40;;;;;;;22.13;4.53;;;;;;;;;;5051174;28;20189;-69
2022/01/03 09:16:07;;;;;;;20.10;5.30;;;;;;;;;;5054200;28;20227;-69
2022/01/03 09:18:33;;;;;;;26.40;5.03;;;;;;;;;;5057356;28;21106;-68
2022/01/03 09:20:58;;;;;;;21.23;3.83;;;;;;;;;;5058484;28;20262;-68
2022/01/03 09:23:28;;;;;;;24.60;4.50;;;;;;;;;;5053764;28;20276;-68
2022/01/03 09:28:49;;;;;;;24.07;5.80;;;;;;;;;;5057547;28;20615;-68
2022/01/03 09:31:15;;;;;;;25.53;5.53;;;;;;;;;;5056499;28;20480;-67
2022/01/03 09:33:40;;;;;;;21.83;6.10;;;;;;;;;;5058477;28;20559;-68
2022/01/03 09:36:06;;;;;;;21.87;4.43;;;;;;;;;;5055765;28;20197;-69
2022/01/03 09:38:31;;;;;;;23.33;5.10;;;;;;;;;;5057072;28;20193;-67
2022/01/03 09:40:59;;;;;;;29.50;4.60;;;;;;;;;;5037936;28;20317;-67
2022/01/03 09:43:25;;;;;;;20.77;3.77;;;;;;;;;;5057951;28;20172;-68
2022/01/03 09:45:51;;;;;;;17.13;3.80;;;;;;;;;;5055947;28;20203;-68
2022/01/03 09:48:17;;;;;;;17.80;4.17;;;;;;;;;;5062177;28;20184;-68
2022/01/03 09:50:43;;;;;;;23.47;5.20;;;;;;;;;;5057935;28;22070;-68
2022/01/03 09:53:09;;;;;;;26.03;3.80;;;;;;;;;;5055888;28;20184;-69
2022/01/03 09:55:35;;;;;;;21.30;4.30;;;;;;;;;;5052060;28;20208;-68
2022/01/03 09:58:00;;;;;;;20.73;4.17;;;;;;;;;;5055902;28;20177;-68
2022/01/03 10:00:26;;;;;;;30.80;4.30;;;;;;;;;;5058402;28;20184;-68
2022/01/03 10:02:53;;;;;;;15.23;4.00;;;;;;;;;;5054810;28;20189;-68
2022/01/03 10:05:19;;;;;;;23.77;6.47;;;;;;;;;;5058136;28;20561;-69
2022/01/03 10:07:44;;;;;;;23.73;4.87;;;;;;;;;;5042329;28;20665;-67
2022/01/03 10:10:10;;;;;;;19.60;3.97;;;;;;;;;;5058562;28;20184;-71
2022/01/03 10:12:36;;;;;;;22.27;5.33;;;;;;;;;;5055021;28;20234;-69
2022/01/03 10:15:04;;;;;;;21.60;4.80;;;;;;;;;;5067884;28;20209;-70
2022/01/03 10:17:33;;;;;;;15.43;4.20;;;;;;;;;;5074674;28;20240;-68
2022/01/03 10:20:02;;;;;;;17.70;3.67;;;;;;;;;;5036852;28;20544;-70
2022/01/03 10:22:28;;;;;;;24.20;4.53;;;;;;;;;;5057463;28;20265;-70
2022/01/03 10:24:54;;;;;;;19.30;3.97;;;;;;;;;;5056230;28;20224;-70
2022/01/03 10:27:20;;;;;;;21.47;4.50;;;;;;;;;;5053032;28;20181;-70
2022/01/03 10:29:56;;;;;;;18.27;5.43;;;;;;;;;;5058096;28;20181;-70
2022/01/03 10:32:27;;;;;;;16.40;4.93;;;;;;;;;;5056187;28;20212;-70
2022/01/03 10:34:52;;;;;;;20.10;6.40;;;;;;;;;;5054882;28;20211;-71
2022/01/03 10:37:18;;;;;;;21.13;4.87;;;;;;;;;;5037366;28;20223;-70
2022/01/03 10:39:44;;;;;;;19.00;3.77;;;;;;;;;;5055881;28;20169;-69
2022/01/03 10:42:14;;;;;;;28.00;6.27;;;;;;;;;;5053257;28;20195;-71
2022/01/03 10:44:42;;;;;;;17.63;5.27;;;;;;;;;;5053886;28;20169;-70
2022/01/03 10:47:14;;;;;;;22.73;4.50;;;;;;;;;;5065720;28;20621;-69
2022/01/03 10:49:40;;;;;;;17.77;4.50;;;;;;;;;;5055174;28;20555;-70
2022/01/03 10:52:11;;;;;;;20.23;4.70;;;;;;;;;;5054816;28;20185;-70
2022/01/03 10:54:37;;;;;;;20.90;5.30;;;;;;;;;;5055121;28;20818;-69
2022/01/03 10:57:02;;;;;;;23.33;5.00;;;;;;;;;;5056175;28;20930;-69
2022/01/03 10:59:30;;;;;;;18.53;4.67;;;;;;;;;;5037709;28;20237;-70
2022/01/03 11:01:59;;;;;;;23.60;4.10;;;;;;;;;;5053745;28;20376;-70
2022/01/03 11:04:38;;;;;;;27.90;4.70;;;;;;;;;;5057849;28;20264;-70
2022/01/03 11:13:02;;;;;;;19.30;4.63;;;;;;;;;;5052815;28;20303;-70
2022/01/03 11:15:27;;;;;;;17.67;4.40;;;;;;;;;;5052070;28;20208;-70
2022/01/03 11:18:06;;;;;;;18.73;3.73;;;;;;;;;;5040811;28;20181;-70
2022/01/03 11:20:33;;;;;;;20.33;4.83;;;;;;;;;;5055805;28;20181;-70
2022/01/03 11:22:59;;;;;;;21.03;4.87;;;;;;;;;;5055370;28;20189;-69
2022/01/03 11:25:28;;;;;;;14.70;4.13;;;;;;;;;;5052618;28;20219;-70
2022/01/03 11:27:53;;;;;;;22.77;5.77;;;;;;;;;;5053624;28;20255;-69
2022/01/03 11:30:20;;;;;;;20.90;4.57;;;;;;;;;;5054421;28;20177;-69
2022/01/03 11:32:48;;;;;;;21.10;4.00;;;;;;;;;;5053536;28;20180;-70
2022/01/03 11:35:14;;;;;;;21.67;5.07;;;;;;;;;;5064157;28;20196;-70
2022/01/03 11:37:40;;;;;;;25.23;5.17;;;;;;;;;;5054305;28;20235;-69
2022/01/03 11:40:06;;;;;;;19.03;4.57;;;;;;;;;;5055663;28;20246;-69
2022/01/03 11:42:35;;;;;;;23.03;4.90;;;;;;;;;;5036978;28;20216;-69
2022/01/03 11:45:00;;;;;;;23.08;4.93;;;;;;;;;;5053570;28;20635;-69
2022/01/03 11:47:27;;;;;;;21.33;4.73;;;;;;;;;;5060345;28;20177;-70
2022/01/03 11:49:52;;;;;;;21.73;5.03;;;;;;;;;;5054462;28;20192;-69
2022/01/03 11:52:18;;;;;;;21.63;5.60;;;;;;;;;;5053468;28;20568;-69
2022/01/03 11:54:43;;;;;;;18.57;3.90;;;;;;;;;;5055263;28;20178;-69
2022/01/03 11:57:13;;;;;;;20.47;5.37;;;;;;;;;;5053412;28;20228;-68
2022/01/03 12:05:26;;;;;;;18.40;3.80;;;;;;;;;;5054893;28;20697;-68
2022/01/03 12:07:55;;;;;;;20.50;4.67;;;;;;;;;;5060700;22;20245;-70
2022/01/03 12:10:20;;;;;;;15.77;4.17;;;;;;;;;;5068712;28;20644;-71
2022/01/03 12:12:46;;;;;;;16.38;4.30;;;;;;;;;;5069941;28;20283;-70
2022/01/03 12:15:32;;;;;;;16.90;3.90;;;;;;;;;;5068610;28;20198;-70
2022/01/03 12:17:58;;;;;;;13.47;3.60;;;;;;;;;;5077755;28;20669;-71
2022/01/03 12:20:37;;;;;;;12.90;4.13;;;;;;;;;;5051447;28;20192;-71
2022/01/03 12:23:03;;;;;;;18.50;3.37;;;;;;;;;;5049256;28;20258;-70
2022/01/03 12:25:31;;;;;;;12.00;3.73;;;;;;;;;;5053401;28;20283;-71
2022/01/03 12:27:57;;;;;;;15.13;3.73;;;;;;;;;;5045691;28;20193;-71
2022/01/03 12:30:25;;;;;;;14.50;3.50;;;;;;;;;;5046680;28;20284;-70
2022/01/03 12:33:08;;;;;;;13.87;4.33;;;;;;;;;;5053434;28;20174;-71
2022/01/03 12:35:35;;;;;;;16.73;3.83;;;;;;;;;;5048511;28;20178;-70
2022/01/03 12:38:03;;;;;;;20.00;4.17;;;;;;;;;;5053821;28;20244;-70
2022/01/03 12:40:31;;;;;;;18.70;4.07;;;;;;;;;;5048559;28;20638;-71
2022/01/03 12:42:57;;;;;;;17.60;3.30;;;;;;;;;;5050283;28;20184;-70
2022/01/03 12:45:25;;;;;;;13.63;3.80;;;;;;;;;;5049323;28;20661;-70
2022/01/03 12:47:51;;;;;;;15.03;3.63;;;;;;;;;;5052192;28;20219;-71
2022/01/03 12:50:28;;;;;;;18.93;4.50;;;;;;;;;;5050873;28;20243;-69
2022/01/03 12:52:54;;;;;;;20.00;5.50;;;;;;;;;;5047713;28;20830;-70
2022/01/03 12:55:38;;;;;;;21.73;4.57;;;;;;;;;;5049481;28;20195;-70
2022/01/03 12:58:18;;;;;;;20.30;3.70;;;;;;;;;;5046837;28;20208;-72
2022/01/03 13:00:45;;;;;;;14.60;3.57;;;;;;;;;;5050753;28;20228;-69
2022/01/03 13:03:23;;;;;;;15.53;3.20;;;;;;;;;;5048359;28;20181;-70
2022/01/03 13:06:08;;;;;;;17.20;3.50;;;;;;;;;;5031733;28;20281;-70
2022/01/03 13:08:33;;;;;;;15.83;3.93;;;;;;;;;;5049504;28;20248;-72
2022/01/03 13:11:02;;;;;;;19.27;3.90;;;;;;;;;;5048114;28;20272;-70
2022/01/03 13:13:28;;;;;;;13.33;3.23;;;;;;;;;;5048723;28;20187;-70
2022/01/03 13:15:53;;;;;;;14.17;3.43;;;;;;;;;;5047206;28;20202;-70
2022/01/03 13:18:18;;;;;;;12.17;3.83;;;;;;;;;;5054616;28;20573;-69
2022/01/03 13:20:56;;;;;;;13.33;4.03;;;;;;;;;;5049153;28;20677;-69
2022/01/03 13:23:21;;;;;;;9.50;2.87;;;;;;;;;;5051825;28;20549;-69
2022/01/03 13:25:46;;;;;;;13.43;3.07;;;;;;;;;;5049128;28;20184;-70
2022/01/03 13:28:11;;;;;;;9.77;3.10;;;;;;;;;;5049110;28;20197;-70
2022/01/03 13:30:36;;;;;;;13.03;3.03;;;;;;;;;;5051608;28;20661;-69
2022/01/03 13:33:01;;;;;;;12.93;2.60;;;;;;;;;;5052356;28;20185;-69
2022/01/03 13:35:27;;;;;;;12.63;3.67;;;;;;;;;;5046736;28;20910;-69
2022/01/03 13:37:52;;;;;;;14.83;3.63;;;;;;;;;;5047383;28;20207;-69
2022/01/03 13:40:20;;;;;;;10.30;2.53;;;;;;;;;;5051504;28;20247;-70
2022/01/03 13:42:59;;;;;;;10.60;2.53;;;;;;;;;;5050012;28;20182;-69
2022/01/03 13:50:54;;;;;;;13.73;2.80;;;;;;;;;;5056007;28;20216;-70
2022/01/03 13:53:20;;;;;;;14.70;3.40;;;;;;;;;;5047145;28;20263;-70
2022/01/03 13:55:50;;;;;;;10.83;2.60;;;;;;;;;;5048901;28;20314;-70
2022/01/03 13:58:16;;;;;;;12.07;2.53;;;;;;;;;;5046521;28;20217;-69
2022/01/03 14:00:43;;;;;;;9.63;3.70;;;;;;;;;;5050572;28;20238;-70
2022/01/03 14:03:08;;;;;;;19.10;4.50;;;;;;;;;;5054363;28;20174;-71
2022/01/03 14:05:33;;;;;;;13.50;2.80;;;;;;;;;;5056790;28;20173;-71
2022/01/03 14:08:00;;;;;;;11.80;3.00;;;;;;;;;;5051276;28;20291;-70
2022/01/03 14:10:42;;;;;;;13.40;2.77;;;;;;;;;;5051012;28;20646;-69
2022/01/03 14:13:09;;;;;;;8.97;2.77;;;;;;;;;;5052173;28;20188;-70
2022/01/03 14:15:34;;;;;;;7.80;2.50;;;;;;;;;;5052623;28;20192;-70
2022/01/03 14:18:00;;;;;;;13.57;3.47;;;;;;;;;;5053240;28;20224;-70
2022/01/03 14:20:25;;;;;;;14.00;3.10;;;;;;;;;;5054253;28;20192;-70
2022/01/03 14:22:50;;;;;;;7.43;2.40;;;;;;;;;;5052041;28;20181;-70
2022/01/03 14:25:17;;;;;;;11.23;2.20;;;;;;;;;;5052810;28;20181;-70
2022/01/03 14:27:42;;;;;;;10.47;2.20;;;;;;;;;;5055418;28;20282;-71
2022/01/03 14:30:13;;;;;;;15.20;2.17;;;;;;;;;;5050721;28;20201;-69
2022/01/03 14:32:39;;;;;;;9.10;2.40;;;;;;;;;;5055892;28;20441;-70
2022/01/03 14:35:04;;;;;;;10.33;2.30;;;;;;;;;;5049844;28;20214;-69
2022/01/03 14:37:32;;;;;;;10.37;3.03;;;;;;;;;;5062913;28;20215;-70
2022/01/03 14:39:58;;;;;;;17.33;2.53;;;;;;;;;;5070767;28;20173;-70
2022/01/03 14:42:24;;;;;;;8.53;2.10;;;;;;;;;;5073626;28;20181;-71
2022/01/03 14:44:50;;;;;;;9.20;2.20;;;;;;;;;;5078049;28;20196;-71
2022/01/03 14:47:15;;;;;;;9.33;2.23;;;;;;;;;;5076301;28;20216;-70
2022/01/03 14:49:54;;;;;;;9.23;2.30;;;;;;;;;;5081460;28;20215;-69
2022/01/03 14:52:29;;;;;;;7.00;1.70;;;;;;;;;;5064830;28;20201;-70
2022/01/03 14:54:54;;;;;;;7.80;2.00;;;;;;;;;;5052308;28;20261;-69